This is the latest recevied weather packets stored in our database for station/object SP4LIN-15. If no packets are shown the sender has not sent any weather packets the latest 10 day(s).
| Time | Temp. | Humidity | Pressure | Rain* | Wind** | Luminosity | Snow |
|---|---|---|---|---|---|---|---|
| 1777618349 | 18.33° C | 48% | 1019.2 hPa | 0 mm | - | - | - |
| 1777617450 | 17.22° C | 50% | 1019.1 hPa | 0 mm | - | - | - |
| 1777616550 | 16.11° C | 52% | 1019 hPa | 0 mm | - | - | - |
| 1777615650 | 15.56° C | 55% | 1018.9 hPa | 0 mm | - | - | - |
| 1777614750 | 14.44° C | 58% | 1018.9 hPa | 0 mm | - | - | - |
| 1777613849 | 11.67° C | 67% | 1019 hPa | 0 mm | - | - | - |
| 1777612950 | 9.44° C | 74% | 1018.8 hPa | 0 mm | - | - | - |
| 1777612050 | 6.67° C | 79% | 1018.9 hPa | 0 mm | - | - | - |
| 1777611150 | 8.89° C | 78% | 1018.8 hPa | 0 mm | - | - | - |
| 1777610250 | 8.89° C | 84% | 1019 hPa | 0 mm | - | - | - |
| 1777609350 | 2.78° C | 87% | 1018.9 hPa | 0 mm | - | - | - |
| 1777608450 | 2.22° C | 86% | 1018.9 hPa | 0 mm | - | - | - |
| 1777607550 | 1.67° C | 86% | 1018.8 hPa | 0 mm | - | - | - |
| 1777606650 | 1.67° C | 86% | 1018.8 hPa | 0 mm | - | - | - |
| 1777604850 | 1.11° C | 85% | 1018.8 hPa | 0 mm | - | - | - |
| 1777603950 | 1.11° C | 85% | 1018.8 hPa | 0 mm | - | - | - |
| 1777603050 | 1.11° C | 85% | 1018.8 hPa | 0 mm | - | - | - |
| 1777602150 | 0.56° C | 84% | 1018.9 hPa | 0 mm | - | - | - |
| 1777601250 | 0.56° C | 83% | 1018.8 hPa | 0 mm | - | - | - |
| 1777600350 | 1.11° C | 83% | 1018.9 hPa | 0 mm | - | - | - |
| 1777599450 | 0.56° C | 82% | 1018.8 hPa | 0 mm | - | - | - |
| 1777598550 | 0.56° C | 81% | 1018.8 hPa | 0 mm | - | - | - |
| 1777597650 | 1.11° C | 81% | 1018.8 hPa | 0 mm | - | - | - |
| 1777596750 | 1.11° C | 80% | 1018.7 hPa | 0 mm | - | - | - |
| 1777595850 | 1.11° C | 80% | 1018.8 hPa | 0 mm | - | - | - |
* Rain latest hour (hover to see other rain measurements)
** Current wind speed in m/s (hover to see current wind gust speed)